Aviation Digital Data Service (ADDS)

Output produced by METARs form (1105 UTC 17 June 2019)
found at http://www.aviationweather.gov/metar/data/
 
Forecast for: RJOT (TAKAMATSU AIRPOR, JP)
Text: TAF RJOT 170512Z 1706/1812 29006KT 9999 FEW025 SCT040
Forecast period: 0600 to 0900 UTC 17 June 2019
Forecast type: FROM: standard forecast or significant change
Winds: from the WNW (290 degrees) at 7 MPH (6 knots; 3.1 m/s)
Visibility: 6 or more miles 10+ km)
Ceiling: at least 12,000 feet AGL
Clouds: few clouds at 2500 feet AGL
scattered clouds at 4000 feet AGL
Weather: no significant weather forecast for this period
Text: BECMG 1709/1711 15005KT
Forecast period: 0900 UTC 17 June 2019 to 1200 UTC 18 June 2019
Forecast type: BECOMING: Conditions expected to become as follows by 1100 UTC 17 June 2019
Winds: from the SSE (150 degrees) at 6 MPH (5 knots; 2.6 m/s)
Visibility: 6 or more miles 10+ km)
Ceiling: at least 12,000 feet AGL
Clouds: few clouds at 2500 feet AGL
scattered clouds at 4000 feet AGL
Weather: no significant weather forecast for this period